Time;durP1;ratioP1;P1;durP2;ratioP2;P2;SDS_P1;SDS_P2;PMS_P1;PMS_P2;Temp;Humidity;BMP_temperature;BMP_pressure;BME280_temperature;BME280_humidity;BME280_pressure;Samples;Min_cycle;Max_cycle;Signal;HPM_P1;HPM_P2
2023/05/08 00:02:07;;;;;;;0.80;0.80;;;;;;;;;;4954844;28;20019;-76
2023/05/08 00:04:33;;;;;;;0.60;0.60;;;;;;;;;;4953625;29;20039;-75
2023/05/08 00:06:59;;;;;;;1.45;0.70;;;;;;;;;;4955042;28;20487;-75
2023/05/08 00:09:25;;;;;;;3.15;1.25;;;;;;;;;;4953424;29;20027;-76
2023/05/08 00:11:51;;;;;;;1.95;0.70;;;;;;;;;;4955227;28;20023;-75
2023/05/08 00:14:17;;;;;;;0.60;0.60;;;;;;;;;;4953604;29;20384;-75
2023/05/08 00:16:43;;;;;;;0.82;0.82;;;;;;;;;;4954758;28;20015;-75
2023/05/08 00:19:09;;;;;;;1.48;0.60;;;;;;;;;;4954653;28;20053;-76
2023/05/08 00:21:35;;;;;;;1.48;1.10;;;;;;;;;;4954854;28;20043;-75
2023/05/08 00:24:01;;;;;;;0.77;0.77;;;;;;;;;;4953432;29;20388;-75
2023/05/08 00:26:27;;;;;;;1.27;0.80;;;;;;;;;;4954725;28;20490;-76
2023/05/08 00:28:53;;;;;;;0.60;0.60;;;;;;;;;;4953320;29;20023;-75
2023/05/08 00:31:19;;;;;;;1.58;0.70;;;;;;;;;;4954382;28;20078;-75
2023/05/08 00:33:45;;;;;;;0.77;0.77;;;;;;;;;;4954125;28;20032;-75
2023/05/08 00:36:14;;;;;;;0.98;0.70;;;;;;;;;;4954432;28;20026;-75
2023/05/08 00:38:40;;;;;;;0.80;0.80;;;;;;;;;;4954296;28;20027;-75
2023/05/08 00:41:06;;;;;;;0.60;0.60;;;;;;;;;;4954467;28;20030;-75
2023/05/08 00:43:32;;;;;;;0.73;0.73;;;;;;;;;;4954056;28;20031;-75
2023/05/08 00:46:00;;;;;;;0.60;0.60;;;;;;;;;;4953034;29;20062;-75
2023/05/08 00:48:28;;;;;;;0.68;0.68;;;;;;;;;;4953304;29;20062;-76
2023/05/08 00:50:55;;;;;;;0.70;0.70;;;;;;;;;;4952837;29;20452;-76
2023/05/08 00:53:21;;;;;;;6.93;0.68;;;;;;;;;;4954363;28;20434;-75
2023/05/08 00:55:48;;;;;;;4.50;0.82;;;;;;;;;;4952010;29;20059;-75
2023/05/08 00:58:14;;;;;;;0.43;0.43;;;;;;;;;;4952426;28;20091;-75
2023/05/08 01:00:41;;;;;;;0.47;0.47;;;;;;;;;;4950929;29;20404;-75
2023/05/08 01:03:08;;;;;;;0.30;0.30;;;;;;;;;;4952425;28;20415;-75
2023/05/08 01:05:35;;;;;;;0.47;0.40;;;;;;;;;;4951234;29;20048;-75
2023/05/08 01:08:01;;;;;;;0.60;0.60;;;;;;;;;;4950938;29;20067;-75
2023/05/08 01:10:32;;;;;;;0.65;0.65;;;;;;;;;;4951836;28;20031;-75
2023/05/08 01:13:09;;;;;;;0.38;0.38;;;;;;;;;;4950554;29;20016;-76
2023/05/08 01:15:40;;;;;;;1.60;0.52;;;;;;;;;;4951733;28;20228;-75
2023/05/08 01:18:26;;;;;;;0.30;0.30;;;;;;;;;;4952062;28;20063;-75
2023/05/08 01:21:11;;;;;;;3.65;0.50;;;;;;;;;;4950821;29;20035;-75
2023/05/08 01:23:40;;;;;;;0.88;0.30;;;;;;;;;;4953015;28;20066;-75
2023/05/08 01:26:06;;;;;;;0.50;0.50;;;;;;;;;;4952813;28;20028;-75
2023/05/08 01:28:32;;;;;;;0.50;0.50;;;;;;;;;;4952438;28;20043;-75
2023/05/08 01:31:01;;;;;;;0.50;0.47;;;;;;;;;;4951854;29;20035;-75
2023/05/08 01:33:42;;;;;;;0.60;0.50;;;;;;;;;;4953290;28;20440;-75
2023/05/08 01:36:30;;;;;;;0.80;0.63;;;;;;;;;;4951962;29;20039;-75
2023/05/08 01:39:04;;;;;;;0.30;0.30;;;;;;;;;;4951321;28;20559;-75
2023/05/08 01:41:31;;;;;;;1.00;0.68;;;;;;;;;;4953163;28;20023;-75
2023/05/08 01:44:10;;;;;;;0.50;0.50;;;;;;;;;;4952986;28;20046;-75
2023/05/08 01:46:36;;;;;;;0.70;0.50;;;;;;;;;;4951672;29;20035;-75
2023/05/08 01:49:14;;;;;;;0.82;0.50;;;;;;;;;;4951771;29;20396;-75
2023/05/08 01:51:45;;;;;;;0.90;0.80;;;;;;;;;;4951780;29;20480;-75
2023/05/08 01:54:15;;;;;;;0.60;0.60;;;;;;;;;;4952460;28;20298;-75
2023/05/08 01:56:43;;;;;;;0.40;0.40;;;;;;;;;;4952015;29;20478;-74
2023/05/08 01:59:09;;;;;;;0.55;0.55;;;;;;;;;;4953541;28;20030;-76
2023/05/08 02:01:36;;;;;;;0.73;0.73;;;;;;;;;;4953327;28;20035;-75
2023/05/08 02:04:02;;;;;;;1.63;0.70;;;;;;;;;;4953309;28;20392;-75
2023/05/08 02:06:30;;;;;;;0.95;0.95;;;;;;;;;;4953011;28;20027;-75
2023/05/08 02:08:57;;;;;;;0.90;0.90;;;;;;;;;;4952296;28;20476;-75
2023/05/08 02:11:23;;;;;;;0.50;0.50;;;;;;;;;;4952649;28;20027;-75
2023/05/08 02:13:50;;;;;;;0.90;0.90;;;;;;;;;;4951138;29;20030;-76
2023/05/08 02:16:17;;;;;;;0.65;0.65;;;;;;;;;;4951155;29;20507;-75
2023/05/08 02:18:46;;;;;;;0.75;0.75;;;;;;;;;;4951053;29;20362;-75
2023/05/08 02:21:14;;;;;;;0.85;0.85;;;;;;;;;;4952567;28;20094;-75
2023/05/08 02:23:40;;;;;;;0.70;0.70;;;;;;;;;;4951077;29;20571;-75
2023/05/08 02:26:07;;;;;;;4.28;1.65;;;;;;;;;;4950782;29;20039;-76
2023/05/08 02:28:34;;;;;;;0.60;0.60;;;;;;;;;;4952641;28;20049;-75
2023/05/08 02:31:00;;;;;;;1.15;1.08;;;;;;;;;;4951117;29;20032;-76
2023/05/08 02:33:27;;;;;;;0.85;0.63;;;;;;;;;;4952539;28;20034;-75
2023/05/08 02:35:55;;;;;;;1.35;1.25;;;;;;;;;;4952432;28;20108;-75
2023/05/08 02:38:21;;;;;;;2.58;0.63;;;;;;;;;;4952067;28;20110;-75
2023/05/08 02:40:49;;;;;;;1.42;0.85;;;;;;;;;;4952090;28;20496;-75
2023/05/08 02:43:15;;;;;;;0.73;0.70;;;;;;;;;;4950756;29;20033;-75
2023/05/08 02:45:46;;;;;;;2.03;1.15;;;;;;;;;;4950830;29;20058;-75
2023/05/08 02:48:17;;;;;;;0.98;0.70;;;;;;;;;;4952415;28;20031;-76
2023/05/08 02:51:03;;;;;;;1.23;1.13;;;;;;;;;;4951988;28;20045;-75
2023/05/08 02:53:37;;;;;;;0.65;0.65;;;;;;;;;;4931103;29;20616;-75
2023/05/08 02:56:11;;;;;;;0.77;0.75;;;;;;;;;;4951452;28;20051;-75
2023/05/08 02:58:44;;;;;;;3.90;0.70;;;;;;;;;;4951848;28;20027;-75
2023/05/08 03:01:13;;;;;;;0.80;0.80;;;;;;;;;;4951775;28;20023;-75
2023/05/08 03:03:41;;;;;;;0.77;0.77;;;;;;;;;;4950481;29;20019;-75
2023/05/08 03:06:09;;;;;;;4.20;0.82;;;;;;;;;;4952113;28;20042;-75
2023/05/08 03:08:36;;;;;;;0.68;0.68;;;;;;;;;;4950522;29;20027;-75
2023/05/08 03:11:05;;;;;;;0.80;0.80;;;;;;;;;;4951520;28;20031;-75
2023/05/08 03:13:32;;;;;;;0.67;0.53;;;;;;;;;;4951932;28;20110;-75
2023/05/08 03:16:02;;;;;;;0.60;0.60;;;;;;;;;;4951362;28;20029;-76
2023/05/08 03:18:36;;;;;;;1.30;0.80;;;;;;;;;;4951582;28;20024;-75
2023/05/08 03:21:03;;;;;;;0.60;0.60;;;;;;;;;;4950389;29;20039;-75
2023/05/08 03:23:30;;;;;;;0.73;0.73;;;;;;;;;;4951729;28;20506;-75
2023/05/08 03:25:58;;;;;;;2.13;0.93;;;;;;;;;;4950153;29;20408;-75
2023/05/08 03:28:25;;;;;;;1.15;0.75;;;;;;;;;;4951767;28;20463;-75
2023/05/08 03:30:51;;;;;;;0.50;0.50;;;;;;;;;;4950135;29;20038;-75
2023/05/08 03:33:17;;;;;;;0.90;0.65;;;;;;;;;;4950236;29;20032;-75
2023/05/08 03:35:44;;;;;;;1.35;1.25;;;;;;;;;;4951429;28;20023;-75
2023/05/08 03:38:11;;;;;;;4.93;1.20;;;;;;;;;;4951769;28;20024;-75
2023/05/08 03:40:46;;;;;;;0.82;0.60;;;;;;;;;;4951007;28;20035;-75
2023/05/08 03:43:12;;;;;;;0.70;0.70;;;;;;;;;;4950167;29;20027;-75
2023/05/08 03:45:39;;;;;;;1.00;0.95;;;;;;;;;;4951262;28;20031;-75
2023/05/08 03:48:06;;;;;;;1.55;0.80;;;;;;;;;;4951375;28;20023;-75
2023/05/08 03:50:34;;;;;;;1.00;1.00;;;;;;;;;;4954087;28;20023;-75
2023/05/08 03:53:00;;;;;;;1.02;0.77;;;;;;;;;;4961258;29;20019;-75
2023/05/08 03:55:26;;;;;;;1.00;1.00;;;;;;;;;;4961634;28;20043;-75
2023/05/08 03:58:11;;;;;;;2.38;0.98;;;;;;;;;;4960909;29;20228;-75
2023/05/08 04:00:43;;;;;;;2.45;1.15;;;;;;;;;;4960335;29;20142;-75
2023/05/08 04:03:18;;;;;;;1.15;1.00;;;;;;;;;;4959868;29;20378;-75
2023/05/08 04:05:59;;;;;;;1.92;1.08;;;;;;;;;;4956027;29;20093;-75
2023/05/08 04:08:29;;;;;;;0.90;0.90;;;;;;;;;;4950067;29;20031;-75
2023/05/08 04:11:09;;;;;;;1.10;1.10;;;;;;;;;;4950696;28;20028;-75
2023/05/08 04:13:40;;;;;;;1.02;1.00;;;;;;;;;;4951538;28;20024;-75
2023/05/08 04:16:11;;;;;;;0.88;0.80;;;;;;;;;;4949980;28;20035;-75
2023/05/08 04:18:42;;;;;;;4.55;1.45;;;;;;;;;;4952564;29;20388;-75
2023/05/08 04:21:10;;;;;;;0.90;0.90;;;;;;;;;;4953009;28;20041;-75
2023/05/08 04:23:38;;;;;;;1.30;1.20;;;;;;;;;;4952668;28;20104;-75
2023/05/08 04:26:05;;;;;;;1.35;1.10;;;;;;;;;;4952901;28;20026;-75
2023/05/08 04:28:31;;;;;;;1.90;1.10;;;;;;;;;;4952935;28;20023;-75
2023/05/08 04:30:58;;;;;;;1.30;1.20;;;;;;;;;;4952870;28;20031;-75
2023/05/08 04:33:24;;;;;;;1.30;1.13;;;;;;;;;;4951642;29;20114;-75
2023/05/08 04:35:50;;;;;;;1.20;1.08;;;;;;;;;;4954196;28;20196;-75
2023/05/08 04:38:16;;;;;;;1.70;1.60;;;;;;;;;;4953031;29;20031;-74
2023/05/08 04:40:42;;;;;;;3.45;1.40;;;;;;;;;;4953869;28;20570;-75
2023/05/08 04:43:09;;;;;;;1.20;1.10;;;;;;;;;;4952950;29;20035;-75
2023/05/08 04:45:35;;;;;;;1.73;1.63;;;;;;;;;;4953995;28;20031;-75
2023/05/08 04:48:01;;;;;;;1.13;1.05;;;;;;;;;;4954226;28;20023;-75
2023/05/08 04:50:27;;;;;;;1.38;1.27;;;;;;;;;;4954054;28;20555;-75
2023/05/08 04:52:53;;;;;;;1.80;1.60;;;;;;;;;;4952631;29;20069;-75
2023/05/08 04:55:19;;;;;;;4.32;1.17;;;;;;;;;;4953550;28;20540;-75
2023/05/08 04:57:45;;;;;;;3.97;1.30;;;;;;;;;;4952280;29;20098;-74
2023/05/08 05:00:11;;;;;;;1.25;0.80;;;;;;;;;;4954023;28;20039;-75
2023/05/08 05:02:37;;;;;;;2.20;1.38;;;;;;;;;;4953930;28;20027;-75
2023/05/08 05:05:03;;;;;;;1.40;1.30;;;;;;;;;;4953335;28;20129;-74
2023/05/08 05:07:29;;;;;;;2.45;1.67;;;;;;;;;;4953362;28;20019;-74
2023/05/08 05:09:55;;;;;;;1.70;1.60;;;;;;;;;;4952596;28;20110;-74
2023/05/08 05:12:21;;;;;;;1.45;1.35;;;;;;;;;;4953429;28;20051;-74
2023/05/08 05:14:47;;;;;;;1.60;1.50;;;;;;;;;;4953661;28;20062;-75
2023/05/08 05:17:13;;;;;;;2.00;1.30;;;;;;;;;;4952223;29;20023;-75
2023/05/08 05:19:39;;;;;;;1.15;1.05;;;;;;;;;;4953375;28;20039;-75
2023/05/08 05:22:07;;;;;;;3.70;1.85;;;;;;;;;;4952138;29;20027;-74
2023/05/08 05:24:34;;;;;;;1.95;1.45;;;;;;;;;;4952978;28;20436;-75
2023/05/08 05:27:01;;;;;;;2.90;1.50;;;;;;;;;;4953557;28;20023;-74
2023/05/08 05:29:27;;;;;;;5.90;1.83;;;;;;;;;;4950881;28;20038;-74
2023/05/08 05:31:53;;;;;;;2.05;1.52;;;;;;;;;;4953139;28;20043;-75
2023/05/08 05:34:19;;;;;;;1.20;1.20;;;;;;;;;;4952124;29;20050;-75
2023/05/08 05:36:45;;;;;;;1.85;1.70;;;;;;;;;;4953377;28;20468;-74
2023/05/08 05:39:11;;;;;;;1.27;1.20;;;;;;;;;;4952761;28;20042;-75
2023/05/08 05:41:37;;;;;;;1.13;1.13;;;;;;;;;;4951577;29;20034;-76
2023/05/08 05:44:03;;;;;;;2.03;1.30;;;;;;;;;;4952854;28;20031;-75
2023/05/08 05:46:31;;;;;;;1.58;1.35;;;;;;;;;;4953131;28;20102;-75
2023/05/08 05:49:00;;;;;;;1.30;1.20;;;;;;;;;;4953720;28;20361;-75
2023/05/08 05:51:26;;;;;;;1.45;1.35;;;;;;;;;;4962569;29;20057;-75
2023/05/08 05:53:52;;;;;;;1.58;1.48;;;;;;;;;;4951302;29;20042;-75
2023/05/08 05:56:20;;;;;;;1.50;1.40;;;;;;;;;;4953041;29;20117;-77
2023/05/08 05:58:46;;;;;;;5.20;1.52;;;;;;;;;;4954339;28;20086;-76
2023/05/08 06:01:12;;;;;;;3.70;1.15;;;;;;;;;;4954120;28;20027;-77
2023/05/08 06:03:38;;;;;;;2.67;1.40;;;;;;;;;;4952334;29;20024;-76
2023/05/08 06:06:05;;;;;;;1.40;1.30;;;;;;;;;;4954088;28;20094;-74
2023/05/08 06:08:31;;;;;;;1.33;1.23;;;;;;;;;;4950729;29;20019;-76
2023/05/08 06:10:57;;;;;;;2.22;1.38;;;;;;;;;;4951426;29;20053;-75
2023/05/08 06:13:23;;;;;;;1.77;1.67;;;;;;;;;;4951180;29;20050;-76
2023/05/08 06:15:49;;;;;;;2.25;1.45;;;;;;;;;;4950632;29;20031;-75
2023/05/08 06:18:15;;;;;;;1.20;1.20;;;;;;;;;;4951765;28;20556;-75
2023/05/08 06:20:42;;;;;;;2.05;1.30;;;;;;;;;;4951786;28;20050;-74
2023/05/08 06:23:08;;;;;;;1.20;1.20;;;;;;;;;;4951741;28;20051;-76
2023/05/08 06:25:34;;;;;;;1.23;1.23;;;;;;;;;;4951412;28;20106;-75
2023/05/08 06:28:00;;;;;;;1.08;0.98;;;;;;;;;;4950425;29;20035;-74
2023/05/08 06:30:26;;;;;;;2.55;1.88;;;;;;;;;;4950475;29;20023;-75
2023/05/08 06:32:52;;;;;;;2.72;1.30;;;;;;;;;;4951678;28;20078;-75
2023/05/08 06:35:18;;;;;;;1.17;1.05;;;;;;;;;;4950591;29;20122;-75
2023/05/08 06:37:45;;;;;;;1.15;1.15;;;;;;;;;;4950019;29;20019;-74
2023/05/08 06:40:12;;;;;;;3.47;2.30;;;;;;;;;;4949588;28;20130;-75
2023/05/08 06:42:38;;;;;;;3.70;2.38;;;;;;;;;;4950811;29;20023;-74
2023/05/08 06:45:05;;;;;;;3.78;3.00;;;;;;;;;;4952184;28;20027;-74
2023/05/08 06:47:31;;;;;;;5.95;3.80;;;;;;;;;;4952061;28;20108;-74
2023/05/08 06:49:57;;;;;;;4.50;2.75;;;;;;;;;;4950774;29;20038;-74
2023/05/08 06:52:24;;;;;;;3.47;2.40;;;;;;;;;;4951974;28;20023;-74
2023/05/08 06:54:50;;;;;;;1.75;1.60;;;;;;;;;;4951940;28;20031;-75
2023/05/08 06:57:16;;;;;;;5.38;2.42;;;;;;;;;;4951690;28;20047;-74
2023/05/08 06:59:42;;;;;;;1.92;1.45;;;;;;;;;;4951506;28;20032;-75
2023/05/08 07:02:09;;;;;;;1.48;1.38;;;;;;;;;;4955474;29;20091;-74
2023/05/08 07:04:35;;;;;;;1.73;1.63;;;;;;;;;;4961785;28;20089;-77
2023/05/08 07:07:01;;;;;;;2.40;1.85;;;;;;;;;;4951251;28;20023;-76
2023/05/08 07:09:27;;;;;;;1.40;1.30;;;;;;;;;;4951106;28;20031;-78
2023/05/08 07:11:53;;;;;;;8.60;1.80;;;;;;;;;;4949877;29;20027;-77
2023/05/08 07:14:19;;;;;;;5.50;3.15;;;;;;;;;;4946004;29;20031;-76
2023/05/08 07:16:45;;;;;;;3.10;1.95;;;;;;;;;;4932641;29;20492;-76
2023/05/08 07:19:11;;;;;;;2.13;1.92;;;;;;;;;;4931323;29;20035;-77
2023/05/08 07:21:38;;;;;;;2.78;1.17;;;;;;;;;;4932579;29;20035;-77
2023/05/08 07:24:05;;;;;;;1.55;1.45;;;;;;;;;;4930869;29;20532;-74
2023/05/08 07:26:31;;;;;;;2.20;1.50;;;;;;;;;;4932451;29;20035;-74
2023/05/08 07:28:57;;;;;;;1.25;1.25;;;;;;;;;;4936062;29;20512;-74
2023/05/08 07:31:23;;;;;;;1.67;1.58;;;;;;;;;;4931031;29;20077;-75
2023/05/08 07:33:49;;;;;;;1.42;1.40;;;;;;;;;;4930865;29;20059;-76
2023/05/08 07:36:15;;;;;;;3.33;1.85;;;;;;;;;;4932550;29;20106;-75
2023/05/08 07:38:41;;;;;;;1.80;1.30;;;;;;;;;;4934968;29;20268;-75
2023/05/08 07:41:07;;;;;;;2.95;1.58;;;;;;;;;;4939324;29;20044;-78
2023/05/08 07:43:33;;;;;;;1.58;1.20;;;;;;;;;;4940198;29;20054;-74
2023/05/08 07:45:59;;;;;;;1.70;1.60;;;;;;;;;;4939085;29;20042;-74
2023/05/08 07:48:25;;;;;;;1.85;1.42;;;;;;;;;;4936345;29;20074;-74
2023/05/08 07:50:51;;;;;;;1.10;1.10;;;;;;;;;;4959193;28;20030;-74
2023/05/08 07:53:17;;;;;;;1.33;1.23;;;;;;;;;;4954136;28;20024;-75
2023/05/08 07:55:43;;;;;;;1.63;1.45;;;;;;;;;;4952789;28;20052;-75
2023/05/08 07:58:09;;;;;;;1.02;1.02;;;;;;;;;;4954659;28;20055;-75
2023/05/08 08:00:35;;;;;;;1.50;1.40;;;;;;;;;;4952917;28;20035;-76
2023/05/08 08:03:01;;;;;;;1.58;1.48;;;;;;;;;;4953000;28;20093;-75
2023/05/08 08:05:28;;;;;;;1.30;1.20;;;;;;;;;;4954604;28;20027;-74
2023/05/08 08:07:54;;;;;;;1.60;1.40;;;;;;;;;;4959642;28;20390;-75
2023/05/08 08:10:19;;;;;;;2.08;1.60;;;;;;;;;;4961454;29;20034;-75
2023/05/08 08:12:45;;;;;;;1.58;1.48;;;;;;;;;;4948914;28;20082;-75
2023/05/08 08:15:12;;;;;;;1.30;1.30;;;;;;;;;;4944873;28;20323;-75
2023/05/08 08:17:37;;;;;;;1.08;1.08;;;;;;;;;;4959652;28;20019;-77
2023/05/08 08:20:04;;;;;;;1.55;1.30;;;;;;;;;;4964816;28;20042;-79
2023/05/08 08:22:30;;;;;;;1.23;1.13;;;;;;;;;;4961373;28;20086;-75
2023/05/08 08:24:56;;;;;;;1.05;1.00;;;;;;;;;;4961270;28;20234;-76
2023/05/08 08:27:22;;;;;;;3.92;2.03;;;;;;;;;;4961866;28;20015;-77
2023/05/08 08:29:48;;;;;;;0.90;0.90;;;;;;;;;;4959565;28;20102;-78
2023/05/08 08:32:14;;;;;;;0.85;0.85;;;;;;;;;;4962581;28;20015;-77
2023/05/08 08:34:40;;;;;;;1.20;1.10;;;;;;;;;;4950703;28;20038;-78
2023/05/08 08:37:06;;;;;;;1.67;1.30;;;;;;;;;;4960829;29;20331;-73
2023/05/08 08:39:35;;;;;;;1.80;1.70;;;;;;;;;;4962136;28;20049;-76
2023/05/08 08:42:02;;;;;;;1.65;1.55;;;;;;;;;;4956114;28;20034;-77
2023/05/08 08:44:28;;;;;;;1.23;1.13;;;;;;;;;;4950310;28;20114;-76
2023/05/08 08:46:54;;;;;;;1.30;1.20;;;;;;;;;;4948696;28;20118;-78
2023/05/08 08:49:42;;;;;;;2.55;1.08;;;;;;;;;;4950585;28;20042;-75
2023/05/08 08:52:15;;;;;;;1.70;1.30;;;;;;;;;;4949888;28;20034;-77
2023/05/08 08:54:43;;;;;;;1.08;0.90;;;;;;;;;;4954608;28;20040;-77
2023/05/08 08:57:09;;;;;;;0.90;0.90;;;;;;;;;;4961484;28;20058;-73
2023/05/08 08:59:38;;;;;;;1.58;1.48;;;;;;;;;;4956560;28;20050;-78
2023/05/08 09:02:16;;;;;;;2.05;1.42;;;;;;;;;;4960482;28;20235;-75
2023/05/08 09:04:42;;;;;;;2.60;0.95;;;;;;;;;;4956953;28;20054;-74
2023/05/08 09:07:08;;;;;;;3.03;2.17;;;;;;;;;;4958876;29;20117;-74
2023/05/08 09:09:36;;;;;;;2.25;1.00;;;;;;;;;;4960802;28;20062;-79
2023/05/08 09:12:02;;;;;;;1.17;1.08;;;;;;;;;;4959067;28;20042;-77
2023/05/08 09:14:28;;;;;;;1.17;1.08;;;;;;;;;;4959089;28;20054;-78
2023/05/08 09:16:54;;;;;;;1.15;1.10;;;;;;;;;;4961413;28;20329;-77
2023/05/08 09:19:21;;;;;;;1.33;1.23;;;;;;;;;;4958534;28;20032;-78
2023/05/08 09:21:48;;;;;;;3.03;1.23;;;;;;;;;;4961241;28;20058;-80
2023/05/08 09:24:14;;;;;;;1.20;1.20;;;;;;;;;;4959521;28;20106;-79
2023/05/08 09:26:41;;;;;;;0.77;0.70;;;;;;;;;;4960497;28;20090;-74
2023/05/08 09:29:08;;;;;;;1.00;0.90;;;;;;;;;;4960255;28;20082;-78
2023/05/08 09:31:35;;;;;;;1.35;1.08;;;;;;;;;;4960436;28;20207;-78
2023/05/08 09:34:01;;;;;;;0.77;0.77;;;;;;;;;;4960922;28;20086;-77
2023/05/08 09:36:27;;;;;;;0.80;0.80;;;;;;;;;;4960232;28;20050;-74
2023/05/08 09:38:53;;;;;;;1.10;1.10;;;;;;;;;;4960663;28;20247;-78
2023/05/08 09:41:20;;;;;;;1.25;1.00;;;;;;;;;;4961212;28;20038;-78
2023/05/08 09:44:00;;;;;;;1.42;1.33;;;;;;;;;;4960142;28;20031;-77
2023/05/08 09:46:26;;;;;;;2.15;1.20;;;;;;;;;;4959212;28;20039;-77
2023/05/08 09:48:53;;;;;;;1.50;1.40;;;;;;;;;;4959460;28;20107;-76
2023/05/08 09:51:20;;;;;;;0.90;0.90;;;;;;;;;;4953782;28;20038;-77
2023/05/08 09:53:46;;;;;;;1.20;0.70;;;;;;;;;;4958248;28;20039;-77
2023/05/08 09:56:12;;;;;;;1.05;0.80;;;;;;;;;;4956299;28;20231;-77
2023/05/08 09:58:42;;;;;;;1.17;1.08;;;;;;;;;;4958361;28;20268;-78
2023/05/08 10:01:26;;;;;;;0.68;0.68;;;;;;;;;;4960684;28;20562;-76
2023/05/08 10:03:52;;;;;;;0.98;0.98;;;;;;;;;;4959778;28;20073;-76
2023/05/08 10:06:18;;;;;;;1.33;1.23;;;;;;;;;;4959243;28;20031;-74
2023/05/08 10:08:47;;;;;;;1.20;1.10;;;;;;;;;;4960927;28;20043;-75
2023/05/08 10:11:22;;;;;;;5.45;1.33;;;;;;;;;;4941549;28;20032;-78
2023/05/08 10:13:48;;;;;;;1.15;1.13;;;;;;;;;;4930005;29;20031;-76
2023/05/08 10:16:15;;;;;;;1.15;1.15;;;;;;;;;;4930700;28;20039;-78
2023/05/08 10:18:48;;;;;;;1.65;1.35;;;;;;;;;;4929746;29;20488;-76
2023/05/08 10:21:15;;;;;;;1.17;1.08;;;;;;;;;;4930530;29;20036;-75
2023/05/08 10:23:46;;;;;;;0.90;0.90;;;;;;;;;;4929880;29;20324;-77
2023/05/08 10:26:13;;;;;;;0.90;0.90;;;;;;;;;;4939237;29;20559;-74
2023/05/08 10:28:44;;;;;;;1.05;0.88;;;;;;;;;;4948891;28;20039;-75
2023/05/08 10:31:13;;;;;;;1.80;1.70;;;;;;;;;;4944997;28;20031;-75
2023/05/08 10:33:40;;;;;;;1.02;1.00;;;;;;;;;;4945749;28;20469;-76
2023/05/08 10:36:08;;;;;;;1.90;1.80;;;;;;;;;;4947650;28;20090;-78
2023/05/08 10:38:35;;;;;;;7.25;1.60;;;;;;;;;;4946295;28;20106;-78
2023/05/08 10:41:01;;;;;;;1.63;1.52;;;;;;;;;;4948283;28;20512;-75
2023/05/08 10:43:28;;;;;;;1.63;1.50;;;;;;;;;;4948056;28;20329;-75
2023/05/08 10:45:55;;;;;;;1.73;1.38;;;;;;;;;;4947628;28;20479;-76
2023/05/08 10:48:40;;;;;;;1.60;1.40;;;;;;;;;;4944301;28;20093;-76
2023/05/08 10:51:30;;;;;;;1.20;1.20;;;;;;;;;;4943408;28;20066;-74
2023/05/08 10:54:12;;;;;;;1.25;1.20;;;;;;;;;;4936971;29;20126;-76
2023/05/08 10:56:38;;;;;;;1.10;1.10;;;;;;;;;;4948035;28;20258;-73
2023/05/08 10:59:05;;;;;;;1.05;0.93;;;;;;;;;;4948421;28;20041;-74
2023/05/08 11:01:31;;;;;;;1.00;1.00;;;;;;;;;;4947371;28;20035;-75
2023/05/08 11:03:57;;;;;;;1.05;0.95;;;;;;;;;;4947986;28;20079;-74
2023/05/08 11:06:57;;;;;;;1.17;0.90;;;;;;;;;;4946807;28;20440;-74
2023/05/08 11:09:47;;;;;;;1.45;1.30;;;;;;;;;;4932070;29;20349;-74
2023/05/08 11:12:25;;;;;;;1.30;1.20;;;;;;;;;;4943863;29;20058;-74
2023/05/08 11:15:00;;;;;;;1.33;1.23;;;;;;;;;;4942609;28;20213;-77
2023/05/08 11:17:27;;;;;;;1.40;1.30;;;;;;;;;;4947084;28;20046;-76
2023/05/08 11:20:01;;;;;;;0.95;0.95;;;;;;;;;;4946139;28;20046;-78
2023/05/08 11:22:28;;;;;;;1.17;1.08;;;;;;;;;;4947323;28;20038;-77
2023/05/08 11:24:57;;;;;;;0.80;0.80;;;;;;;;;;4946349;28;20026;-74
2023/05/08 11:27:33;;;;;;;1.38;0.85;;;;;;;;;;4948513;28;20054;-77
2023/05/08 11:30:18;;;;;;;0.85;0.82;;;;;;;;;;4951184;28;20066;-74
2023/05/08 11:33:02;;;;;;;4.38;0.95;;;;;;;;;;4951314;28;20039;-76
2023/05/08 11:35:47;;;;;;;0.70;0.70;;;;;;;;;;4950639;28;20484;-76
2023/05/08 11:38:16;;;;;;;0.90;0.90;;;;;;;;;;4950838;28;20086;-74
2023/05/08 11:40:46;;;;;;;1.08;0.90;;;;;;;;;;4951545;28;20082;-73
2023/05/08 11:43:26;;;;;;;1.20;1.10;;;;;;;;;;4946840;28;20047;-74
2023/05/08 11:45:53;;;;;;;1.58;1.48;;;;;;;;;;4951990;28;20186;-74
2023/05/08 11:48:19;;;;;;;3.05;1.95;;;;;;;;;;4950755;28;20522;-74
2023/05/08 11:50:46;;;;;;;1.90;1.80;;;;;;;;;;4950142;28;20039;-74
2023/05/08 11:53:12;;;;;;;1.63;1.52;;;;;;;;;;4951505;28;20023;-74
2023/05/08 11:55:38;;;;;;;1.77;1.50;;;;;;;;;;4950058;28;20043;-74
2023/05/08 11:58:14;;;;;;;0.93;0.63;;;;;;;;;;4955654;28;20035;-74
2023/05/08 12:00:44;;;;;;;1.65;0.82;;;;;;;;;;4954156;28;20186;-73
2023/05/08 12:03:17;;;;;;;0.80;0.80;;;;;;;;;;4957648;28;20031;-73
2023/05/08 12:05:43;;;;;;;1.38;0.65;;;;;;;;;;4955118;28;20158;-73
2023/05/08 12:08:10;;;;;;;1.30;0.70;;;;;;;;;;4952481;28;20023;-73
2023/05/08 12:10:40;;;;;;;1.13;0.80;;;;;;;;;;4960252;28;20023;-74
2023/05/08 12:13:19;;;;;;;1.73;0.88;;;;;;;;;;4954464;28;20035;-73
2023/05/08 12:15:46;;;;;;;0.82;0.77;;;;;;;;;;4955360;28;20034;-73
2023/05/08 12:18:12;;;;;;;0.80;0.80;;;;;;;;;;4952782;28;20191;-75
2023/05/08 12:20:38;;;;;;;0.57;0.57;;;;;;;;;;4954440;28;20093;-74
2023/05/08 12:23:04;;;;;;;0.63;0.57;;;;;;;;;;4954142;28;20054;-74
2023/05/08 12:25:30;;;;;;;0.52;0.52;;;;;;;;;;4956737;28;20031;-73
2023/05/08 12:27:56;;;;;;;1.50;0.43;;;;;;;;;;4955539;28;20031;-73
2023/05/08 12:30:22;;;;;;;0.65;0.65;;;;;;;;;;4952202;28;20468;-73
2023/05/08 12:32:49;;;;;;;0.60;0.60;;;;;;;;;;4952736;28;20380;-74
2023/05/08 12:35:15;;;;;;;0.80;0.80;;;;;;;;;;4952173;28;20179;-73
2023/05/08 12:37:41;;;;;;;1.10;0.90;;;;;;;;;;4957957;28;20314;-75
2023/05/08 12:40:08;;;;;;;0.75;0.75;;;;;;;;;;4955907;28;20065;-76
2023/05/08 12:42:43;;;;;;;0.63;0.63;;;;;;;;;;4950427;28;20051;-73
2023/05/08 12:45:15;;;;;;;0.55;0.55;;;;;;;;;;4949094;28;20085;-74
2023/05/08 12:47:44;;;;;;;0.75;0.75;;;;;;;;;;4952595;28;20042;-75
2023/05/08 12:50:11;;;;;;;2.17;0.60;;;;;;;;;;4952205;28;20067;-74
2023/05/08 12:52:37;;;;;;;1.05;0.80;;;;;;;;;;4942870;28;20127;-74
2023/05/08 12:55:03;;;;;;;1.45;0.63;;;;;;;;;;4932159;29;20094;-74
2023/05/08 12:57:29;;;;;;;0.60;0.60;;;;;;;;;;4949051;28;20121;-74
2023/05/08 13:00:02;;;;;;;10.98;0.82;;;;;;;;;;4949562;28;20043;-77
2023/05/08 13:02:28;;;;;;;0.57;0.57;;;;;;;;;;4949446;28;20055;-75
2023/05/08 13:04:54;;;;;;;1.92;1.00;;;;;;;;;;4950470;28;20480;-74
2023/05/08 13:07:21;;;;;;;0.50;0.50;;;;;;;;;;4948298;28;20419;-74
2023/05/08 13:10:03;;;;;;;0.63;0.63;;;;;;;;;;4947484;28;20027;-78
2023/05/08 13:12:29;;;;;;;0.57;0.57;;;;;;;;;;4928753;29;20499;-73
2023/05/08 13:14:55;;;;;;;2.25;0.90;;;;;;;;;;4930440;29;20049;-74
2023/05/08 13:17:21;;;;;;;2.58;1.20;;;;;;;;;;4928633;29;20489;-74
2023/05/08 13:19:47;;;;;;;0.88;0.80;;;;;;;;;;4930073;29;20091;-75
2023/05/08 13:22:13;;;;;;;0.85;0.60;;;;;;;;;;4929988;29;20445;-74
2023/05/08 13:24:39;;;;;;;0.50;0.50;;;;;;;;;;4929361;29;20052;-74
2023/05/08 13:27:05;;;;;;;0.73;0.73;;;;;;;;;;4929957;29;20389;-76
2023/05/08 13:29:31;;;;;;;0.60;0.60;;;;;;;;;;4929787;29;20047;-74
2023/05/08 13:31:57;;;;;;;0.60;0.60;;;;;;;;;;4929744;29;20519;-76
2023/05/08 13:34:24;;;;;;;0.60;0.60;;;;;;;;;;4929800;29;20023;-75
2023/05/08 13:36:50;;;;;;;0.75;0.70;;;;;;;;;;4929516;29;20442;-77
2023/05/08 13:39:16;;;;;;;0.57;0.57;;;;;;;;;;4929107;29;20032;-74
2023/05/08 13:41:42;;;;;;;0.55;0.55;;;;;;;;;;4929731;29;20432;-75
2023/05/08 13:44:08;;;;;;;0.73;0.73;;;;;;;;;;4927964;29;20388;-73
2023/05/08 13:46:34;;;;;;;1.23;0.90;;;;;;;;;;4929950;29;20031;-74
2023/05/08 13:49:00;;;;;;;0.73;0.70;;;;;;;;;;4928958;29;20047;-73
2023/05/08 13:51:26;;;;;;;1.00;0.90;;;;;;;;;;4929558;29;20473;-74
2023/05/08 13:53:52;;;;;;;0.70;0.52;;;;;;;;;;4928084;29;20335;-74
2023/05/08 13:56:18;;;;;;;0.40;0.40;;;;;;;;;;4928476;29;20048;-76
2023/05/08 13:58:44;;;;;;;1.20;0.80;;;;;;;;;;4929449;29;20095;-76
2023/05/08 14:01:10;;;;;;;3.03;0.90;;;;;;;;;;4929299;29;20067;-77
2023/05/08 14:03:36;;;;;;;0.65;0.50;;;;;;;;;;4930046;29;20568;-77
2023/05/08 14:06:02;;;;;;;0.98;0.65;;;;;;;;;;4929662;29;20031;-76
2023/05/08 14:08:28;;;;;;;0.77;0.70;;;;;;;;;;4929267;29;20485;-74
2023/05/08 14:10:54;;;;;;;2.53;0.80;;;;;;;;;;4936772;29;20062;-74
2023/05/08 14:13:20;;;;;;;0.88;0.80;;;;;;;;;;4949154;28;20413;-74
2023/05/08 14:15:46;;;;;;;1.58;1.45;;;;;;;;;;4948869;28;20032;-73
2023/05/08 14:18:12;;;;;;;0.95;0.95;;;;;;;;;;4949099;28;20061;-76
2023/05/08 14:20:38;;;;;;;1.08;0.70;;;;;;;;;;4948817;28;20034;-74
2023/05/08 14:23:04;;;;;;;0.65;0.65;;;;;;;;;;4948412;28;20054;-74
2023/05/08 14:25:30;;;;;;;0.80;0.80;;;;;;;;;;4948327;28;20031;-75
2023/05/08 14:27:56;;;;;;;0.60;0.60;;;;;;;;;;4947733;28;20449;-74
2023/05/08 14:30:22;;;;;;;1.15;0.70;;;;;;;;;;4948223;28;20063;-75
2023/05/08 14:32:48;;;;;;;3.38;1.08;;;;;;;;;;4948490;28;20143;-74
2023/05/08 14:35:14;;;;;;;7.80;0.70;;;;;;;;;;4948799;28;20106;-74
2023/05/08 14:37:40;;;;;;;0.70;0.60;;;;;;;;;;4947994;28;20027;-75
2023/05/08 14:40:06;;;;;;;3.92;0.52;;;;;;;;;;4946345;28;20046;-74
2023/05/08 14:42:32;;;;;;;0.73;0.68;;;;;;;;;;4946774;28;20031;-74
2023/05/08 14:44:59;;;;;;;3.20;0.70;;;;;;;;;;4947919;28;20024;-73
2023/05/08 14:47:25;;;;;;;0.90;0.90;;;;;;;;;;4947527;28;20035;-74
2023/05/08 14:49:52;;;;;;;2.67;0.63;;;;;;;;;;4948073;28;20034;-73